sensor_id;sensor_type;location;lat;lon;timestamp;P1;durP1;ratioP1;P2;durP2;ratioP2
39454;SDS011;25155;41.890;23.446;2022-11-20T00:00:24;4.03;;;2.13;;
39454;SDS011;25155;41.890;23.446;2022-11-20T00:02:51;7.97;;;2.25;;
39454;SDS011;25155;41.890;23.446;2022-11-20T00:05:19;4.90;;;2.15;;
39454;SDS011;25155;41.890;23.446;2022-11-20T00:07:46;4.53;;;2.10;;
39454;SDS011;25155;41.890;23.446;2022-11-20T00:10:14;4.55;;;2.00;;
39454;SDS011;25155;41.890;23.446;2022-11-20T00:12:41;3.60;;;1.70;;
39454;SDS011;25155;41.890;23.446;2022-11-20T00:15:09;5.18;;;2.10;;
39454;SDS011;25155;41.890;23.446;2022-11-20T00:17:38;8.00;;;2.85;;
39454;SDS011;25155;41.890;23.446;2022-11-20T00:20:06;5.40;;;2.20;;
39454;SDS011;25155;41.890;23.446;2022-11-20T00:22:35;5.95;;;2.33;;
39454;SDS011;25155;41.890;23.446;2022-11-20T00:25:02;4.45;;;1.92;;
39454;SDS011;25155;41.890;23.446;2022-11-20T00:27:30;7.85;;;2.20;;
39454;SDS011;25155;41.890;23.446;2022-11-20T00:29:57;6.47;;;2.28;;
39454;SDS011;25155;41.890;23.446;2022-11-20T00:32:26;5.05;;;2.05;;
39454;SDS011;25155;41.890;23.446;2022-11-20T00:34:55;4.72;;;1.83;;
39454;SDS011;25155;41.890;23.446;2022-11-20T00:37:22;5.82;;;2.28;;
39454;SDS011;25155;41.890;23.446;2022-11-20T00:39:50;4.07;;;1.80;;
39454;SDS011;25155;41.890;23.446;2022-11-20T00:42:18;3.70;;;2.00;;
39454;SDS011;25155;41.890;23.446;2022-11-20T00:44:45;4.38;;;2.00;;
39454;SDS011;25155;41.890;23.446;2022-11-20T00:47:13;4.78;;;2.20;;
39454;SDS011;25155;41.890;23.446;2022-11-20T00:49:40;5.45;;;2.10;;
39454;SDS011;25155;41.890;23.446;2022-11-20T00:52:09;7.38;;;2.38;;
39454;SDS011;25155;41.890;23.446;2022-11-20T00:54:36;6.57;;;2.20;;
39454;SDS011;25155;41.890;23.446;2022-11-20T00:57:04;4.00;;;1.95;;
39454;SDS011;25155;41.890;23.446;2022-11-20T00:59:31;3.10;;;1.60;;
39454;SDS011;25155;41.890;23.446;2022-11-20T01:01:59;3.88;;;1.83;;
39454;SDS011;25155;41.890;23.446;2022-11-20T01:04:26;2.50;;;1.80;;
39454;SDS011;25155;41.890;23.446;2022-11-20T01:06:54;4.03;;;1.95;;
39454;SDS011;25155;41.890;23.446;2022-11-20T01:09:23;3.53;;;1.85;;
39454;SDS011;25155;41.890;23.446;2022-11-20T01:11:50;3.67;;;1.70;;
39454;SDS011;25155;41.890;23.446;2022-11-20T01:14:18;4.95;;;2.00;;
39454;SDS011;25155;41.890;23.446;2022-11-20T01:16:47;3.00;;;1.75;;
39454;SDS011;25155;41.890;23.446;2022-11-20T01:19:16;5.80;;;1.85;;
39454;SDS011;25155;41.890;23.446;2022-11-20T01:21:45;3.28;;;1.80;;
39454;SDS011;25155;41.890;23.446;2022-11-20T01:24:15;2.88;;;1.80;;
39454;SDS011;25155;41.890;23.446;2022-11-20T01:26:46;3.50;;;1.70;;
39454;SDS011;25155;41.890;23.446;2022-11-20T01:29:16;3.50;;;1.95;;
39454;SDS011;25155;41.890;23.446;2022-11-20T01:31:44;2.65;;;1.60;;
39454;SDS011;25155;41.890;23.446;2022-11-20T01:34:13;3.45;;;1.60;;
39454;SDS011;25155;41.890;23.446;2022-11-20T01:36:42;3.55;;;1.63;;
39454;SDS011;25155;41.890;23.446;2022-11-20T01:39:11;2.25;;;1.65;;
39454;SDS011;25155;41.890;23.446;2022-11-20T01:41:41;2.72;;;1.60;;
39454;SDS011;25155;41.890;23.446;2022-11-20T01:47:23;3.72;;;1.90;;
39454;SDS011;25155;41.890;23.446;2022-11-20T01:49:54;3.78;;;1.60;;
39454;SDS011;25155;41.890;23.446;2022-11-20T01:52:26;2.17;;;1.60;;
39454;SDS011;25155;41.890;23.446;2022-11-20T01:54:59;5.53;;;1.90;;
39454;SDS011;25155;41.890;23.446;2022-11-20T01:57:30;3.53;;;1.60;;
39454;SDS011;25155;41.890;23.446;2022-11-20T02:00:03;3.05;;;1.70;;
39454;SDS011;25155;41.890;23.446;2022-11-20T02:02:33;4.20;;;1.73;;
39454;SDS011;25155;41.890;23.446;2022-11-20T02:05:02;2.33;;;1.67;;
39454;SDS011;25155;41.890;23.446;2022-11-20T02:07:36;2.60;;;1.77;;
39454;SDS011;25155;41.890;23.446;2022-11-20T02:10:05;4.18;;;1.85;;
39454;SDS011;25155;41.890;23.446;2022-11-20T02:12:33;4.95;;;2.20;;
39454;SDS011;25155;41.890;23.446;2022-11-20T02:15:19;3.70;;;1.60;;
39454;SDS011;25155;41.890;23.446;2022-11-20T02:17:46;2.72;;;1.60;;
39454;SDS011;25155;41.890;23.446;2022-11-20T02:20:14;4.35;;;1.77;;
39454;SDS011;25155;41.890;23.446;2022-11-20T02:22:44;4.22;;;1.50;;
39454;SDS011;25155;41.890;23.446;2022-11-20T02:25:19;3.60;;;1.55;;
39454;SDS011;25155;41.890;23.446;2022-11-20T02:27:47;2.42;;;1.63;;
39454;SDS011;25155;41.890;23.446;2022-11-20T02:30:14;4.80;;;1.80;;
39454;SDS011;25155;41.890;23.446;2022-11-20T02:32:42;3.42;;;1.70;;
39454;SDS011;25155;41.890;23.446;2022-11-20T02:35:36;4.65;;;2.10;;
39454;SDS011;25155;41.890;23.446;2022-11-20T02:38:08;3.30;;;1.83;;
39454;SDS011;25155;41.890;23.446;2022-11-20T02:40:37;5.72;;;1.77;;
39454;SDS011;25155;41.890;23.446;2022-11-20T02:43:05;5.47;;;1.80;;
39454;SDS011;25155;41.890;23.446;2022-11-20T02:45:32;3.67;;;1.70;;
39454;SDS011;25155;41.890;23.446;2022-11-20T02:48:00;3.13;;;1.80;;
39454;SDS011;25155;41.890;23.446;2022-11-20T02:50:28;3.90;;;1.92;;
39454;SDS011;25155;41.890;23.446;2022-11-20T02:52:55;3.00;;;1.50;;
39454;SDS011;25155;41.890;23.446;2022-11-20T02:55:23;3.83;;;1.75;;
39454;SDS011;25155;41.890;23.446;2022-11-20T02:57:51;2.38;;;1.60;;
39454;SDS011;25155;41.890;23.446;2022-11-20T03:00:19;4.07;;;1.75;;
39454;SDS011;25155;41.890;23.446;2022-11-20T03:02:46;3.47;;;1.70;;
39454;SDS011;25155;41.890;23.446;2022-11-20T03:05:14;1.92;;;1.42;;
39454;SDS011;25155;41.890;23.446;2022-11-20T03:07:42;4.70;;;1.90;;
39454;SDS011;25155;41.890;23.446;2022-11-20T03:10:10;5.47;;;1.95;;
39454;SDS011;25155;41.890;23.446;2022-11-20T03:12:38;3.85;;;1.85;;
39454;SDS011;25155;41.890;23.446;2022-11-20T03:15:07;3.22;;;1.65;;
39454;SDS011;25155;41.890;23.446;2022-11-20T03:17:35;3.60;;;1.60;;
39454;SDS011;25155;41.890;23.446;2022-11-20T03:20:03;5.40;;;1.70;;
39454;SDS011;25155;41.890;23.446;2022-11-20T03:22:31;2.78;;;1.60;;
39454;SDS011;25155;41.890;23.446;2022-11-20T03:24:59;4.25;;;1.85;;
39454;SDS011;25155;41.890;23.446;2022-11-20T03:27:27;4.47;;;1.98;;
39454;SDS011;25155;41.890;23.446;2022-11-20T03:29:58;3.65;;;1.70;;
39454;SDS011;25155;41.890;23.446;2022-11-20T03:32:27;2.92;;;1.60;;
39454;SDS011;25155;41.890;23.446;2022-11-20T03:34:54;4.05;;;1.80;;
39454;SDS011;25155;41.890;23.446;2022-11-20T03:37:21;3.67;;;1.85;;
39454;SDS011;25155;41.890;23.446;2022-11-20T03:39:49;3.78;;;1.65;;
39454;SDS011;25155;41.890;23.446;2022-11-20T03:42:17;4.63;;;2.00;;
39454;SDS011;25155;41.890;23.446;2022-11-20T03:45:01;5.68;;;1.95;;
39454;SDS011;25155;41.890;23.446;2022-11-20T03:47:30;4.75;;;2.00;;
39454;SDS011;25155;41.890;23.446;2022-11-20T03:49:58;5.75;;;2.38;;
39454;SDS011;25155;41.890;23.446;2022-11-20T03:52:25;6.13;;;1.73;;
39454;SDS011;25155;41.890;23.446;2022-11-20T03:54:52;4.32;;;2.00;;
39454;SDS011;25155;41.890;23.446;2022-11-20T03:57:20;6.13;;;2.10;;
39454;SDS011;25155;41.890;23.446;2022-11-20T03:59:47;6.20;;;2.03;;
39454;SDS011;25155;41.890;23.446;2022-11-20T04:02:15;4.30;;;1.92;;
39454;SDS011;25155;41.890;23.446;2022-11-20T04:04:44;3.88;;;2.13;;
39454;SDS011;25155;41.890;23.446;2022-11-20T04:07:11;3.75;;;1.95;;
39454;SDS011;25155;41.890;23.446;2022-11-20T04:09:39;4.65;;;2.35;;
39454;SDS011;25155;41.890;23.446;2022-11-20T04:12:06;5.00;;;1.90;;
39454;SDS011;25155;41.890;23.446;2022-11-20T04:14:33;3.97;;;1.92;;
39454;SDS011;25155;41.890;23.446;2022-11-20T04:17:01;2.97;;;1.90;;
39454;SDS011;25155;41.890;23.446;2022-11-20T04:19:29;3.45;;;2.03;;
39454;SDS011;25155;41.890;23.446;2022-11-20T04:21:58;2.80;;;1.65;;
39454;SDS011;25155;41.890;23.446;2022-11-20T04:24:26;4.93;;;1.95;;
39454;SDS011;25155;41.890;23.446;2022-11-20T04:26:53;3.47;;;1.98;;
39454;SDS011;25155;41.890;23.446;2022-11-20T04:29:21;3.90;;;1.92;;
39454;SDS011;25155;41.890;23.446;2022-11-20T04:31:48;3.25;;;1.90;;
39454;SDS011;25155;41.890;23.446;2022-11-20T04:34:16;4.05;;;2.13;;
39454;SDS011;25155;41.890;23.446;2022-11-20T04:36:43;4.53;;;2.40;;
39454;SDS011;25155;41.890;23.446;2022-11-20T04:39:12;3.75;;;1.92;;
39454;SDS011;25155;41.890;23.446;2022-11-20T04:41:42;5.43;;;2.10;;
39454;SDS011;25155;41.890;23.446;2022-11-20T04:44:10;5.20;;;2.30;;
39454;SDS011;25155;41.890;23.446;2022-11-20T04:46:38;3.17;;;1.83;;
39454;SDS011;25155;41.890;23.446;2022-11-20T04:49:07;3.75;;;2.10;;
39454;SDS011;25155;41.890;23.446;2022-11-20T04:51:34;4.40;;;2.00;;
39454;SDS011;25155;41.890;23.446;2022-11-20T04:54:02;6.30;;;2.30;;
39454;SDS011;25155;41.890;23.446;2022-11-20T04:56:31;5.55;;;2.15;;
39454;SDS011;25155;41.890;23.446;2022-11-20T04:58:59;6.53;;;2.35;;
39454;SDS011;25155;41.890;23.446;2022-11-20T05:01:28;5.32;;;2.30;;
39454;SDS011;25155;41.890;23.446;2022-11-20T05:03:55;4.88;;;2.30;;
39454;SDS011;25155;41.890;23.446;2022-11-20T05:06:23;5.75;;;2.40;;
39454;SDS011;25155;41.890;23.446;2022-11-20T05:08:50;4.05;;;2.10;;
39454;SDS011;25155;41.890;23.446;2022-11-20T05:11:18;5.13;;;2.33;;
39454;SDS011;25155;41.890;23.446;2022-11-20T05:13:48;6.72;;;2.30;;
39454;SDS011;25155;41.890;23.446;2022-11-20T05:16:16;4.85;;;2.03;;
39454;SDS011;25155;41.890;23.446;2022-11-20T05:18:45;4.65;;;2.08;;
39454;SDS011;25155;41.890;23.446;2022-11-20T05:21:12;5.25;;;2.35;;
39454;SDS011;25155;41.890;23.446;2022-11-20T05:23:40;3.67;;;2.00;;
39454;SDS011;25155;41.890;23.446;2022-11-20T05:26:12;3.15;;;1.98;;
39454;SDS011;25155;41.890;23.446;2022-11-20T05:28:41;4.75;;;2.08;;
39454;SDS011;25155;41.890;23.446;2022-11-20T05:31:10;4.45;;;2.00;;
39454;SDS011;25155;41.890;23.446;2022-11-20T05:33:39;4.28;;;2.00;;
39454;SDS011;25155;41.890;23.446;2022-11-20T05:36:07;6.25;;;2.63;;
39454;SDS011;25155;41.890;23.446;2022-11-20T05:38:36;4.38;;;2.10;;
39454;SDS011;25155;41.890;23.446;2022-11-20T05:41:04;3.97;;;2.08;;
39454;SDS011;25155;41.890;23.446;2022-11-20T05:43:32;4.72;;;2.13;;
39454;SDS011;25155;41.890;23.446;2022-11-20T05:46:01;4.50;;;2.22;;
39454;SDS011;25155;41.890;23.446;2022-11-20T05:48:31;4.63;;;2.00;;
39454;SDS011;25155;41.890;23.446;2022-11-20T05:50:59;4.63;;;2.10;;
39454;SDS011;25155;41.890;23.446;2022-11-20T05:53:28;5.32;;;2.40;;
39454;SDS011;25155;41.890;23.446;2022-11-20T05:55:56;4.72;;;2.30;;
39454;SDS011;25155;41.890;23.446;2022-11-20T05:58:24;4.53;;;2.15;;
39454;SDS011;25155;41.890;23.446;2022-11-20T06:00:51;5.63;;;2.25;;
39454;SDS011;25155;41.890;23.446;2022-11-20T06:03:19;4.60;;;2.20;;
39454;SDS011;25155;41.890;23.446;2022-11-20T06:05:48;5.80;;;2.63;;
39454;SDS011;25155;41.890;23.446;2022-11-20T06:08:15;7.55;;;3.72;;
39454;SDS011;25155;41.890;23.446;2022-11-20T06:10:43;4.68;;;2.40;;
39454;SDS011;25155;41.890;23.446;2022-11-20T06:13:10;5.80;;;2.65;;
39454;SDS011;25155;41.890;23.446;2022-11-20T06:15:37;10.13;;;3.55;;
39454;SDS011;25155;41.890;23.446;2022-11-20T06:18:05;7.18;;;3.70;;
39454;SDS011;25155;41.890;23.446;2022-11-20T06:20:32;7.82;;;3.70;;
39454;SDS011;25155;41.890;23.446;2022-11-20T06:23:01;7.95;;;3.90;;
39454;SDS011;25155;41.890;23.446;2022-11-20T06:25:28;6.00;;;3.38;;
39454;SDS011;25155;41.890;23.446;2022-11-20T06:27:56;6.03;;;3.40;;
39454;SDS011;25155;41.890;23.446;2022-11-20T06:30:23;7.22;;;3.60;;
39454;SDS011;25155;41.890;23.446;2022-11-20T06:32:50;6.13;;;2.70;;
39454;SDS011;25155;41.890;23.446;2022-11-20T06:35:18;5.38;;;2.58;;
39454;SDS011;25155;41.890;23.446;2022-11-20T06:37:45;9.57;;;3.15;;
39454;SDS011;25155;41.890;23.446;2022-11-20T06:40:14;5.28;;;2.90;;
39454;SDS011;25155;41.890;23.446;2022-11-20T06:42:41;7.30;;;3.20;;
39454;SDS011;25155;41.890;23.446;2022-11-20T06:45:09;4.57;;;2.65;;
39454;SDS011;25155;41.890;23.446;2022-11-20T06:47:36;5.78;;;3.15;;
39454;SDS011;25155;41.890;23.446;2022-11-20T06:50:04;5.97;;;2.50;;
39454;SDS011;25155;41.890;23.446;2022-11-20T06:52:32;4.93;;;2.40;;
39454;SDS011;25155;41.890;23.446;2022-11-20T06:55:00;8.23;;;2.90;;
39454;SDS011;25155;41.890;23.446;2022-11-20T06:57:29;5.28;;;2.15;;
39454;SDS011;25155;41.890;23.446;2022-11-20T06:59:56;3.55;;;1.90;;
39454;SDS011;25155;41.890;23.446;2022-11-20T07:02:24;4.65;;;2.55;;
39454;SDS011;25155;41.890;23.446;2022-11-20T07:04:51;9.75;;;3.28;;
39454;SDS011;25155;41.890;23.446;2022-11-20T07:07:18;6.05;;;2.75;;
39454;SDS011;25155;41.890;23.446;2022-11-20T07:09:46;5.25;;;2.13;;
39454;SDS011;25155;41.890;23.446;2022-11-20T07:12:13;4.13;;;2.03;;
39454;SDS011;25155;41.890;23.446;2022-11-20T07:14:42;6.15;;;2.40;;
39454;SDS011;25155;41.890;23.446;2022-11-20T07:17:09;6.78;;;2.67;;
39454;SDS011;25155;41.890;23.446;2022-11-20T07:19:38;4.70;;;2.70;;
39454;SDS011;25155;41.890;23.446;2022-11-20T07:22:05;6.63;;;2.67;;
39454;SDS011;25155;41.890;23.446;2022-11-20T07:24:33;4.22;;;2.08;;
39454;SDS011;25155;41.890;23.446;2022-11-20T07:27:00;5.55;;;2.83;;
39454;SDS011;25155;41.890;23.446;2022-11-20T07:29:29;6.28;;;2.70;;
39454;SDS011;25155;41.890;23.446;2022-11-20T07:31:58;5.68;;;2.65;;
39454;SDS011;25155;41.890;23.446;2022-11-20T07:34:25;8.23;;;3.03;;
39454;SDS011;25155;41.890;23.446;2022-11-20T07:36:52;6.90;;;2.80;;
39454;SDS011;25155;41.890;23.446;2022-11-20T07:39:20;8.73;;;3.35;;
39454;SDS011;25155;41.890;23.446;2022-11-20T07:41:47;7.13;;;3.40;;
39454;SDS011;25155;41.890;23.446;2022-11-20T07:44:15;7.07;;;2.83;;
39454;SDS011;25155;41.890;23.446;2022-11-20T07:46:42;4.65;;;2.67;;
39454;SDS011;25155;41.890;23.446;2022-11-20T07:49:11;8.77;;;3.00;;
39454;SDS011;25155;41.890;23.446;2022-11-20T07:51:38;6.97;;;3.75;;
39454;SDS011;25155;41.890;23.446;2022-11-20T07:54:06;7.78;;;2.97;;
39454;SDS011;25155;41.890;23.446;2022-11-20T07:56:33;5.10;;;2.67;;
39454;SDS011;25155;41.890;23.446;2022-11-20T07:59:01;5.53;;;2.42;;
39454;SDS011;25155;41.890;23.446;2022-11-20T08:01:29;5.38;;;2.75;;
39454;SDS011;25155;41.890;23.446;2022-11-20T08:03:57;4.13;;;2.50;;
39454;SDS011;25155;41.890;23.446;2022-11-20T08:06:26;8.85;;;3.47;;
39454;SDS011;25155;41.890;23.446;2022-11-20T08:08:53;8.65;;;4.35;;
39454;SDS011;25155;41.890;23.446;2022-11-20T08:11:21;10.02;;;4.20;;
39454;SDS011;25155;41.890;23.446;2022-11-20T08:14:05;8.95;;;3.70;;
39454;SDS011;25155;41.890;23.446;2022-11-20T08:16:38;8.85;;;3.20;;
39454;SDS011;25155;41.890;23.446;2022-11-20T08:19:06;10.18;;;3.45;;
39454;SDS011;25155;41.890;23.446;2022-11-20T08:21:35;9.50;;;3.60;;
39454;SDS011;25155;41.890;23.446;2022-11-20T08:24:03;11.10;;;3.92;;
39454;SDS011;25155;41.890;23.446;2022-11-20T08:26:32;4.88;;;2.70;;
39454;SDS011;25155;41.890;23.446;2022-11-20T08:28:59;8.98;;;3.97;;
39454;SDS011;25155;41.890;23.446;2022-11-20T08:31:27;10.57;;;4.00;;
39454;SDS011;25155;41.890;23.446;2022-11-20T08:33:55;8.20;;;3.83;;
39454;SDS011;25155;41.890;23.446;2022-11-20T08:36:23;10.52;;;3.90;;
39454;SDS011;25155;41.890;23.446;2022-11-20T08:38:54;11.52;;;4.60;;
39454;SDS011;25155;41.890;23.446;2022-11-20T08:43:52;11.48;;;5.10;;
39454;SDS011;25155;41.890;23.446;2022-11-20T08:46:21;6.38;;;3.75;;
39454;SDS011;25155;41.890;23.446;2022-11-20T08:48:49;8.98;;;4.50;;
39454;SDS011;25155;41.890;23.446;2022-11-20T08:51:16;11.90;;;5.47;;
39454;SDS011;25155;41.890;23.446;2022-11-20T08:53:44;10.05;;;4.70;;
39454;SDS011;25155;41.890;23.446;2022-11-20T08:56:15;9.25;;;4.00;;
39454;SDS011;25155;41.890;23.446;2022-11-20T08:58:43;7.15;;;3.45;;
39454;SDS011;25155;41.890;23.446;2022-11-20T09:01:11;6.95;;;2.88;;
39454;SDS011;25155;41.890;23.446;2022-11-20T09:03:38;5.72;;;2.50;;
39454;SDS011;25155;41.890;23.446;2022-11-20T09:06:06;8.00;;;3.10;;
39454;SDS011;25155;41.890;23.446;2022-11-20T09:08:34;7.65;;;3.72;;
39454;SDS011;25155;41.890;23.446;2022-11-20T09:11:02;7.72;;;3.70;;
39454;SDS011;25155;41.890;23.446;2022-11-20T09:13:32;7.47;;;3.30;;
39454;SDS011;25155;41.890;23.446;2022-11-20T09:16:01;7.65;;;3.38;;
39454;SDS011;25155;41.890;23.446;2022-11-20T09:18:31;7.43;;;3.00;;
39454;SDS011;25155;41.890;23.446;2022-11-20T09:20:59;14.70;;;3.80;;
39454;SDS011;25155;41.890;23.446;2022-11-20T09:23:30;9.40;;;3.50;;
39454;SDS011;25155;41.890;23.446;2022-11-20T09:26:01;8.40;;;3.00;;
39454;SDS011;25155;41.890;23.446;2022-11-20T09:28:29;9.38;;;4.05;;
39454;SDS011;25155;41.890;23.446;2022-11-20T09:30:59;7.90;;;3.30;;
39454;SDS011;25155;41.890;23.446;2022-11-20T09:33:26;9.05;;;3.25;;
39454;SDS011;25155;41.890;23.446;2022-11-20T09:35:54;11.40;;;3.75;;
39454;SDS011;25155;41.890;23.446;2022-11-20T09:38:24;11.18;;;3.50;;
39454;SDS011;25155;41.890;23.446;2022-11-20T09:40:52;9.02;;;3.35;;
39454;SDS011;25155;41.890;23.446;2022-11-20T09:43:27;6.95;;;3.10;;
39454;SDS011;25155;41.890;23.446;2022-11-20T09:46:07;10.50;;;3.20;;
39454;SDS011;25155;41.890;23.446;2022-11-20T09:48:48;6.30;;;3.22;;
39454;SDS011;25155;41.890;23.446;2022-11-20T09:51:30;6.63;;;2.72;;
39454;SDS011;25155;41.890;23.446;2022-11-20T09:54:12;6.85;;;2.70;;
39454;SDS011;25155;41.890;23.446;2022-11-20T09:56:44;8.60;;;3.20;;
39454;SDS011;25155;41.890;23.446;2022-11-20T09:59:22;4.90;;;2.70;;
39454;SDS011;25155;41.890;23.446;2022-11-20T10:02:00;7.63;;;2.95;;
39454;SDS011;25155;41.890;23.446;2022-11-20T10:04:32;14.32;;;3.97;;
39454;SDS011;25155;41.890;23.446;2022-11-20T10:07:02;10.23;;;3.75;;
39454;SDS011;25155;41.890;23.446;2022-11-20T10:09:40;15.63;;;3.65;;
39454;SDS011;25155;41.890;23.446;2022-11-20T10:12:12;7.07;;;2.90;;
39454;SDS011;25155;41.890;23.446;2022-11-20T10:14:51;6.15;;;2.50;;
39454;SDS011;25155;41.890;23.446;2022-11-20T10:17:37;4.35;;;2.40;;
39454;SDS011;25155;41.890;23.446;2022-11-20T10:20:20;10.55;;;3.40;;
39454;SDS011;25155;41.890;23.446;2022-11-20T10:23:00;7.28;;;3.60;;
39454;SDS011;25155;41.890;23.446;2022-11-20T10:25:41;10.30;;;3.67;;
39454;SDS011;25155;41.890;23.446;2022-11-20T10:28:19;5.78;;;3.03;;
39454;SDS011;25155;41.890;23.446;2022-11-20T10:31:00;5.38;;;2.47;;
39454;SDS011;25155;41.890;23.446;2022-11-20T10:33:29;9.77;;;3.00;;
39454;SDS011;25155;41.890;23.446;2022-11-20T10:36:05;5.10;;;2.75;;
39454;SDS011;25155;41.890;23.446;2022-11-20T10:38:40;5.68;;;2.47;;
39454;SDS011;25155;41.890;23.446;2022-11-20T10:41:13;10.02;;;3.30;;
39454;SDS011;25155;41.890;23.446;2022-11-20T10:43:52;5.57;;;2.53;;
39454;SDS011;25155;41.890;23.446;2022-11-20T10:46:30;10.30;;;3.50;;
39454;SDS011;25155;41.890;23.446;2022-11-20T10:49:10;6.00;;;2.60;;
39454;SDS011;25155;41.890;23.446;2022-11-20T10:51:45;5.43;;;2.50;;
39454;SDS011;25155;41.890;23.446;2022-11-20T10:54:29;6.22;;;3.10;;
39454;SDS011;25155;41.890;23.446;2022-11-20T10:57:05;5.75;;;2.80;;
39454;SDS011;25155;41.890;23.446;2022-11-20T10:59:50;10.68;;;3.90;;
39454;SDS011;25155;41.890;23.446;2022-11-20T11:02:34;9.40;;;3.25;;
39454;SDS011;25155;41.890;23.446;2022-11-20T11:05:11;9.13;;;3.05;;
39454;SDS011;25155;41.890;23.446;2022-11-20T11:07:47;8.60;;;3.67;;
39454;SDS011;25155;41.890;23.446;2022-11-20T11:10:17;12.60;;;3.67;;
39454;SDS011;25155;41.890;23.446;2022-11-20T11:12:49;13.75;;;4.07;;
39454;SDS011;25155;41.890;23.446;2022-11-20T11:15:24;13.50;;;3.60;;
39454;SDS011;25155;41.890;23.446;2022-11-20T11:17:55;7.38;;;3.72;;
39454;SDS011;25155;41.890;23.446;2022-11-20T11:20:24;6.95;;;2.67;;
39454;SDS011;25155;41.890;23.446;2022-11-20T11:22:53;9.40;;;3.42;;
39454;SDS011;25155;41.890;23.446;2022-11-20T11:25:23;7.28;;;3.35;;
39454;SDS011;25155;41.890;23.446;2022-11-20T11:27:57;12.27;;;4.25;;
39454;SDS011;25155;41.890;23.446;2022-11-20T11:30:27;12.43;;;3.40;;
39454;SDS011;25155;41.890;23.446;2022-11-20T11:33:06;16.10;;;3.60;;
39454;SDS011;25155;41.890;23.446;2022-11-20T11:35:39;10.13;;;3.10;;
39454;SDS011;25155;41.890;23.446;2022-11-20T11:38:12;9.88;;;3.50;;
39454;SDS011;25155;41.890;23.446;2022-11-20T11:40:43;9.00;;;3.10;;
39454;SDS011;25155;41.890;23.446;2022-11-20T11:43:18;11.88;;;3.90;;
39454;SDS011;25155;41.890;23.446;2022-11-20T11:46:09;8.70;;;3.28;;
39454;SDS011;25155;41.890;23.446;2022-11-20T11:48:56;11.90;;;3.40;;
39454;SDS011;25155;41.890;23.446;2022-11-20T11:51:26;8.60;;;3.13;;
39454;SDS011;25155;41.890;23.446;2022-11-20T11:53:58;10.55;;;3.20;;
39454;SDS011;25155;41.890;23.446;2022-11-20T11:56:27;8.07;;;3.38;;
39454;SDS011;25155;41.890;23.446;2022-11-20T11:58:56;6.75;;;2.65;;
39454;SDS011;25155;41.890;23.446;2022-11-20T12:01:27;4.97;;;2.58;;
39454;SDS011;25155;41.890;23.446;2022-11-20T12:04:02;10.63;;;3.38;;
39454;SDS011;25155;41.890;23.446;2022-11-20T12:06:38;5.07;;;2.67;;
39454;SDS011;25155;41.890;23.446;2022-11-20T12:09:09;9.00;;;2.90;;
39454;SDS011;25155;41.890;23.446;2022-11-20T12:11:38;4.53;;;2.30;;
39454;SDS011;25155;41.890;23.446;2022-11-20T12:14:14;3.20;;;1.92;;
39454;SDS011;25155;41.890;23.446;2022-11-20T12:16:49;7.57;;;2.53;;
39454;SDS011;25155;41.890;23.446;2022-11-20T12:19:20;2.17;;;1.60;;
39454;SDS011;25155;41.890;23.446;2022-11-20T12:21:51;7.80;;;2.38;;
39454;SDS011;25155;41.890;23.446;2022-11-20T12:30:24;8.35;;;3.30;;
39454;SDS011;25155;41.890;23.446;2022-11-20T12:32:55;12.93;;;3.55;;
39454;SDS011;25155;41.890;23.446;2022-11-20T12:35:44;7.50;;;3.05;;
39454;SDS011;25155;41.890;23.446;2022-11-20T12:38:29;10.00;;;3.08;;
39454;SDS011;25155;41.890;23.446;2022-11-20T12:41:06;9.43;;;3.30;;
39454;SDS011;25155;41.890;23.446;2022-11-20T12:44:06;10.77;;;3.20;;
39454;SDS011;25155;41.890;23.446;2022-11-20T12:46:59;7.32;;;2.80;;
39454;SDS011;25155;41.890;23.446;2022-11-20T12:49:38;9.85;;;3.17;;
39454;SDS011;25155;41.890;23.446;2022-11-20T12:52:21;10.90;;;3.55;;
39454;SDS011;25155;41.890;23.446;2022-11-20T12:55:07;8.07;;;3.13;;
39454;SDS011;25155;41.890;23.446;2022-11-20T12:58:04;5.00;;;2.63;;
39454;SDS011;25155;41.890;23.446;2022-11-20T13:00:40;7.18;;;3.22;;
39454;SDS011;25155;41.890;23.446;2022-11-20T13:06:05;9.00;;;5.80;;
39454;SDS011;25155;41.890;23.446;2022-11-20T13:08:44;10.45;;;5.05;;
39454;SDS011;25155;41.890;23.446;2022-11-20T13:11:17;7.20;;;3.90;;
39454;SDS011;25155;41.890;23.446;2022-11-20T13:14:04;9.35;;;3.50;;
39454;SDS011;25155;41.890;23.446;2022-11-20T13:16:42;6.43;;;3.10;;
39454;SDS011;25155;41.890;23.446;2022-11-20T13:19:17;4.97;;;2.78;;
39454;SDS011;25155;41.890;23.446;2022-11-20T13:21:45;4.60;;;2.70;;
39454;SDS011;25155;41.890;23.446;2022-11-20T13:24:24;7.82;;;3.33;;
39454;SDS011;25155;41.890;23.446;2022-11-20T13:27:05;7.75;;;3.78;;
39454;SDS011;25155;41.890;23.446;2022-11-20T13:29:46;6.78;;;3.47;;
39454;SDS011;25155;41.890;23.446;2022-11-20T13:32:25;6.75;;;3.00;;
39454;SDS011;25155;41.890;23.446;2022-11-20T13:34:58;11.77;;;4.40;;
39454;SDS011;25155;41.890;23.446;2022-11-20T13:37:28;19.65;;;7.93;;
39454;SDS011;25155;41.890;23.446;2022-11-20T13:40:13;23.77;;;13.32;;
39454;SDS011;25155;41.890;23.446;2022-11-20T13:42:54;20.57;;;10.47;;
39454;SDS011;25155;41.890;23.446;2022-11-20T13:45:28;19.42;;;10.98;;
39454;SDS011;25155;41.890;23.446;2022-11-20T13:47:57;12.27;;;8.75;;
39454;SDS011;25155;41.890;23.446;2022-11-20T13:50:39;14.07;;;9.43;;
39454;SDS011;25155;41.890;23.446;2022-11-20T13:53:19;15.32;;;11.32;;
39454;SDS011;25155;41.890;23.446;2022-11-20T13:56:00;21.20;;;15.27;;
39454;SDS011;25155;41.890;23.446;2022-11-20T13:58:44;19.13;;;13.45;;
39454;SDS011;25155;41.890;23.446;2022-11-20T14:01:19;22.80;;;15.52;;
39454;SDS011;25155;41.890;23.446;2022-11-20T14:03:49;19.45;;;12.48;;
39454;SDS011;25155;41.890;23.446;2022-11-20T14:06:21;14.05;;;9.57;;
39454;SDS011;25155;41.890;23.446;2022-11-20T14:08:53;16.15;;;9.40;;
39454;SDS011;25155;41.890;23.446;2022-11-20T14:11:23;11.45;;;7.50;;
39454;SDS011;25155;41.890;23.446;2022-11-20T14:13:55;10.50;;;7.63;;
39454;SDS011;25155;41.890;23.446;2022-11-20T14:16:25;14.23;;;7.65;;
39454;SDS011;25155;41.890;23.446;2022-11-20T14:18:54;16.50;;;7.07;;
39454;SDS011;25155;41.890;23.446;2022-11-20T14:21:27;9.90;;;5.55;;
39454;SDS011;25155;41.890;23.446;2022-11-20T14:24:05;8.77;;;4.82;;
39454;SDS011;25155;41.890;23.446;2022-11-20T14:26:35;7.97;;;4.30;;
39454;SDS011;25155;41.890;23.446;2022-11-20T14:29:10;9.38;;;4.35;;
39454;SDS011;25155;41.890;23.446;2022-11-20T14:31:39;9.07;;;5.15;;
39454;SDS011;25155;41.890;23.446;2022-11-20T14:34:10;8.98;;;4.35;;
39454;SDS011;25155;41.890;23.446;2022-11-20T14:36:42;10.25;;;4.32;;
39454;SDS011;25155;41.890;23.446;2022-11-20T14:39:10;15.07;;;6.82;;
39454;SDS011;25155;41.890;23.446;2022-11-20T14:41:49;15.73;;;7.72;;
39454;SDS011;25155;41.890;23.446;2022-11-20T14:44:17;14.82;;;7.20;;
39454;SDS011;25155;41.890;23.446;2022-11-20T14:46:47;10.68;;;6.13;;
39454;SDS011;25155;41.890;23.446;2022-11-20T14:49:14;12.32;;;6.95;;
39454;SDS011;25155;41.890;23.446;2022-11-20T14:51:41;9.88;;;5.68;;
39454;SDS011;25155;41.890;23.446;2022-11-20T14:54:11;8.65;;;5.38;;
39454;SDS011;25155;41.890;23.446;2022-11-20T14:56:42;9.48;;;5.78;;
39454;SDS011;25155;41.890;23.446;2022-11-20T14:59:22;8.88;;;5.35;;
39454;SDS011;25155;41.890;23.446;2022-11-20T15:01:54;8.18;;;5.00;;
39454;SDS011;25155;41.890;23.446;2022-11-20T15:04:23;8.25;;;4.43;;
39454;SDS011;25155;41.890;23.446;2022-11-20T15:06:51;11.38;;;4.97;;